createdAt,value
2022-12-11T00:00:25.766Z,43.83
2022-12-11T00:02:53.583Z,38.92
2022-12-11T00:05:21.154Z,44.00
2022-12-11T00:07:48.773Z,40.85
2022-12-11T00:10:17.794Z,36.13
2022-12-11T00:12:47.078Z,39.25
2022-12-11T00:15:14.879Z,49.15
2022-12-11T00:17:43.974Z,51.38
2022-12-11T00:20:12.721Z,42.58
2022-12-11T00:22:41.500Z,49.22
2022-12-11T00:25:10.233Z,44.03
2022-12-11T00:27:38.021Z,47.38
2022-12-11T00:30:08.888Z,39.22
2022-12-11T00:32:37.818Z,42.92
2022-12-11T00:35:06.156Z,42.03
2022-12-11T00:37:34.384Z,42.78
2022-12-11T00:40:02.115Z,38.10
2022-12-11T00:42:29.776Z,42.42
2022-12-11T00:44:57.803Z,42.13
2022-12-11T00:47:27.068Z,45.20
2022-12-11T00:49:54.911Z,44.08
2022-12-11T00:52:22.585Z,44.67
2022-12-11T00:54:50.165Z,46.28
2022-12-11T00:57:17.865Z,43.33
2022-12-11T00:59:45.576Z,42.33
2022-12-11T01:02:13.294Z,46.95
2022-12-11T01:04:42.425Z,36.05
2022-12-11T01:07:10.057Z,42.90
2022-12-11T01:09:55.652Z,43.40
2022-12-11T01:12:23.391Z,44.67
2022-12-11T01:14:50.954Z,42.20
2022-12-11T01:17:18.536Z,43.55
2022-12-11T01:19:47.946Z,48.95
2022-12-11T01:22:15.690Z,43.63
2022-12-11T01:24:43.552Z,42.50
2022-12-11T01:27:12.353Z,45.00
2022-12-11T01:29:40.172Z,40.47
2022-12-11T01:32:07.957Z,55.80
2022-12-11T01:34:35.618Z,43.17
2022-12-11T01:37:04.578Z,48.85
2022-12-11T01:39:32.117Z,45.38
2022-12-11T01:42:00.409Z,44.15
2022-12-11T01:45:05.381Z,38.47
2022-12-11T01:47:33.203Z,43.47
2022-12-11T01:50:01.001Z,56.10
2022-12-11T01:52:30.717Z,49.05
2022-12-11T01:54:58.630Z,54.85
2022-12-11T01:57:26.448Z,60.53
2022-12-11T01:59:54.249Z,45.83
2022-12-11T02:02:25.798Z,54.20
2022-12-11T02:04:53.431Z,60.17
2022-12-11T02:07:21.374Z,59.72
2022-12-11T02:09:51.084Z,53.40
2022-12-11T02:12:25.787Z,61.55
2022-12-11T02:15:00.917Z,52.47
2022-12-11T02:17:37.023Z,52.17
2022-12-11T02:20:12.180Z,46.30
2022-12-11T02:23:07.999Z,60.20
2022-12-11T02:25:46.865Z,57.38
2022-12-11T02:28:20.927Z,60.25
2022-12-11T02:30:52.390Z,50.30
2022-12-11T02:33:24.735Z,58.03
2022-12-11T02:35:52.942Z,54.10
2022-12-11T02:38:24.888Z,62.80
2022-12-11T02:40:54.818Z,64.40
2022-12-11T02:43:25.376Z,50.70
2022-12-11T02:45:55.170Z,54.95
2022-12-11T02:48:25.137Z,71.65
2022-12-11T02:50:59.002Z,59.28
2022-12-11T02:53:29.887Z,57.97
2022-12-11T02:56:03.284Z,57.58
2022-12-11T02:58:34.749Z,61.97
2022-12-11T03:01:02.615Z,51.78
2022-12-11T03:03:31.609Z,53.55
2022-12-11T03:05:59.358Z,58.15
2022-12-11T03:08:27.187Z,56.00
2022-12-11T03:10:54.757Z,51.88
2022-12-11T03:13:23.890Z,54.17
2022-12-11T03:16:03.378Z,59.60
2022-12-11T03:18:37.385Z,56.00
2022-12-11T03:21:13.764Z,58.83
2022-12-11T03:23:47.897Z,55.72
2022-12-11T03:26:18.425Z,61.95
2022-12-11T03:28:50.047Z,53.60
2022-12-11T03:31:31.384Z,57.25
2022-12-11T03:34:04.549Z,57.58
2022-12-11T03:36:35.717Z,54.20
2022-12-11T03:39:08.855Z,58.45
2022-12-11T03:41:39.446Z,54.72
2022-12-11T03:44:08.090Z,56.22
2022-12-11T03:46:40.959Z,60.58
2022-12-11T03:49:11.892Z,52.75
2022-12-11T03:51:40.465Z,58.65
2022-12-11T03:54:09.119Z,50.53
2022-12-11T03:56:40.008Z,44.70
2022-12-11T03:59:07.598Z,50.78
2022-12-11T04:01:36.231Z,63.72
2022-12-11T04:04:05.586Z,58.58
2022-12-11T04:06:33.238Z,61.72
2022-12-11T04:09:00.826Z,50.67
2022-12-11T04:11:37.154Z,54.25
2022-12-11T04:14:21.197Z,53.30
2022-12-11T04:16:48.848Z,57.78
2022-12-11T04:19:36.077Z,52.78
2022-12-11T04:22:21.062Z,55.85
2022-12-11T04:24:49.217Z,59.23
2022-12-11T04:27:37.290Z,52.53
2022-12-11T04:30:07.072Z,47.40
2022-12-11T04:32:34.807Z,49.85
2022-12-11T04:35:04.028Z,54.10
2022-12-11T04:37:31.661Z,51.65
2022-12-11T04:39:59.597Z,58.97
2022-12-11T04:42:27.216Z,54.55
2022-12-11T04:44:54.824Z,58.03
2022-12-11T04:47:22.437Z,58.42
2022-12-11T04:49:50.006Z,54.55
2022-12-11T04:52:19.583Z,54.30
2022-12-11T04:54:47.292Z,62.13
2022-12-11T04:57:14.916Z,51.13
2022-12-11T04:59:42.641Z,49.40
2022-12-11T05:02:10.215Z,51.75
2022-12-11T05:04:38.066Z,40.00
2022-12-11T05:07:05.827Z,43.67
2022-12-11T05:09:35.316Z,47.15
2022-12-11T05:12:03.194Z,43.22
2022-12-11T05:14:32.064Z,43.83
2022-12-11T05:17:00.032Z,43.35
2022-12-11T05:19:28.927Z,48.17
2022-12-11T05:21:57.575Z,43.92
2022-12-11T05:24:26.307Z,42.00
2022-12-11T05:26:55.349Z,45.42
2022-12-11T05:29:23.011Z,41.20
2022-12-11T05:31:51.396Z,42.00
2022-12-11T05:34:19.201Z,40.63
2022-12-11T05:36:47.214Z,35.58
2022-12-11T05:39:15.087Z,36.33
2022-12-11T05:41:42.812Z,40.92
2022-12-11T05:44:13.518Z,28.38
2022-12-11T05:46:41.889Z,27.85
2022-12-11T05:49:11.343Z,27.85
2022-12-11T05:51:39.620Z,25.90
2022-12-11T05:54:07.471Z,29.52
2022-12-11T05:56:36.289Z,32.60
2022-12-11T05:59:06.452Z,25.55
2022-12-11T06:01:38.037Z,31.92
2022-12-11T06:04:07.785Z,36.22
2022-12-11T06:06:38.437Z,29.35
2022-12-11T06:09:06.531Z,25.50
2022-12-11T06:11:35.259Z,30.73
2022-12-11T06:14:03.927Z,26.95
2022-12-11T06:16:32.226Z,28.48
2022-12-11T06:19:02.381Z,24.33
2022-12-11T06:21:32.067Z,23.58
2022-12-11T06:24:00.988Z,36.30
2022-12-11T06:26:29.666Z,34.17
2022-12-11T06:28:57.350Z,28.13
2022-12-11T06:31:25.133Z,26.30
2022-12-11T06:33:52.791Z,31.40
2022-12-11T06:36:23.934Z,28.35
2022-12-11T06:38:51.942Z,25.73
2022-12-11T06:41:20.150Z,25.85
2022-12-11T06:43:48.415Z,29.77
2022-12-11T06:46:18.755Z,25.05
2022-12-11T06:48:47.049Z,26.15
2022-12-11T06:51:16.824Z,27.98
2022-12-11T06:53:46.652Z,24.00
2022-12-11T06:56:16.062Z,27.83
2022-12-11T06:58:44.639Z,30.65
2022-12-11T07:01:18.796Z,26.02
2022-12-11T07:03:47.102Z,23.40
2022-12-11T07:06:15.301Z,27.30
2022-12-11T07:08:43.946Z,29.23
2022-12-11T07:11:14.515Z,28.98
2022-12-11T07:13:43.046Z,22.83
2022-12-11T07:16:12.282Z,28.55
2022-12-11T07:18:40.644Z,26.52
2022-12-11T07:21:10.599Z,28.15
2022-12-11T07:23:38.405Z,28.40
2022-12-11T07:26:07.807Z,26.02
2022-12-11T07:28:37.582Z,26.25
2022-12-11T07:31:09.491Z,23.80
2022-12-11T07:33:37.484Z,23.70
2022-12-11T07:36:07.464Z,27.90
2022-12-11T07:38:37.189Z,29.75
2022-12-11T07:41:05.480Z,30.02
2022-12-11T07:43:33.869Z,37.03
2022-12-11T07:46:07.221Z,26.00
2022-12-11T07:48:36.187Z,23.88
2022-12-11T07:51:11.005Z,27.17
2022-12-11T07:53:38.878Z,21.45
2022-12-11T07:56:07.268Z,25.42
2022-12-11T07:58:34.937Z,25.83
2022-12-11T08:01:04.059Z,26.45
2022-12-11T08:03:31.687Z,31.05
2022-12-11T08:05:59.272Z,21.30
2022-12-11T08:08:27.910Z,26.50
2022-12-11T08:10:55.501Z,22.65
2022-12-11T08:13:23.451Z,22.55
2022-12-11T08:15:51.477Z,23.58
2022-12-11T08:18:20.565Z,19.77
2022-12-11T08:20:48.277Z,23.42
2022-12-11T08:23:15.815Z,24.02
2022-12-11T08:25:43.478Z,29.40
2022-12-11T08:28:11.000Z,25.40
2022-12-11T08:30:40.159Z,24.50
2022-12-11T08:33:07.972Z,24.58
2022-12-11T08:35:40.389Z,30.20
2022-12-11T08:38:08.124Z,22.95
2022-12-11T08:40:35.847Z,25.35
2022-12-11T08:43:03.393Z,21.98
2022-12-11T08:45:31.004Z,25.90
2022-12-11T08:47:59.371Z,26.17
2022-12-11T08:50:27.118Z,22.40
2022-12-11T08:52:57.488Z,26.05
2022-12-11T08:55:25.455Z,24.85
2022-12-11T08:57:52.999Z,25.20
2022-12-11T09:00:20.918Z,26.02
2022-12-11T09:02:49.296Z,25.95
2022-12-11T09:05:17.981Z,25.75
2022-12-11T09:07:45.797Z,24.92
2022-12-11T09:10:14.909Z,23.55
2022-12-11T09:12:42.848Z,23.33
2022-12-11T09:15:11.565Z,23.77
2022-12-11T09:17:39.234Z,27.25
2022-12-11T09:20:07.888Z,25.58
2022-12-11T09:22:35.647Z,27.17
2022-12-11T09:25:03.487Z,25.20
2022-12-11T09:27:32.523Z,27.48
2022-12-11T09:30:00.206Z,27.60
2022-12-11T09:32:28.084Z,24.90
2022-12-11T09:34:55.787Z,24.83
2022-12-11T09:37:23.515Z,27.88
2022-12-11T09:39:54.128Z,27.08
2022-12-11T09:42:35.455Z,27.70
2022-12-11T09:45:06.974Z,22.17
2022-12-11T09:47:37.841Z,26.40
2022-12-11T09:50:16.650Z,26.33
2022-12-11T09:52:55.936Z,23.50
2022-12-11T09:55:25.570Z,29.15
2022-12-11T09:58:02.118Z,29.77
2022-12-11T10:00:39.008Z,23.55
2022-12-11T10:03:50.269Z,26.45
2022-12-11T10:06:25.135Z,28.25
2022-12-11T10:09:01.650Z,28.45
2022-12-11T10:11:44.424Z,24.65
2022-12-11T10:14:20.720Z,22.85
2022-12-11T10:16:52.958Z,26.58
2022-12-11T10:19:23.072Z,26.25
2022-12-11T10:21:52.807Z,28.60
2022-12-11T10:24:57.826Z,25.85
2022-12-11T10:27:21.143Z,25.98
2022-12-11T10:29:52.607Z,27.10
2022-12-11T10:32:25.338Z,23.80
2022-12-11T10:35:00.303Z,20.30
2022-12-11T10:37:28.101Z,28.15
2022-12-11T10:39:55.747Z,25.00
2022-12-11T10:42:24.425Z,26.55
2022-12-11T10:45:00.418Z,26.60
2022-12-11T10:47:30.160Z,28.15
2022-12-11T10:50:00.165Z,26.38
2022-12-11T10:52:31.654Z,22.23
2022-12-11T10:55:02.673Z,27.55
2022-12-11T10:57:33.557Z,23.83
2022-12-11T11:00:04.311Z,25.92
2022-12-11T11:02:38.801Z,27.77
2022-12-11T11:05:14.956Z,24.43
2022-12-11T11:07:42.888Z,21.83
2022-12-11T11:10:18.498Z,26.83
2022-12-11T11:12:48.280Z,24.83
2022-12-11T11:15:19.408Z,19.63
2022-12-11T11:17:55.369Z,26.05
2022-12-11T11:20:26.680Z,27.40
2022-12-11T11:22:56.243Z,27.38
2022-12-11T11:25:26.330Z,26.38
2022-12-11T11:27:56.121Z,23.38
2022-12-11T11:30:26.017Z,26.77
2022-12-11T11:32:57.436Z,21.15
2022-12-11T11:35:27.305Z,26.05
2022-12-11T11:38:03.098Z,28.40
2022-12-11T11:40:34.258Z,24.38
2022-12-11T11:43:13.663Z,21.95
2022-12-11T11:45:47.859Z,19.90
2022-12-11T11:48:29.514Z,18.80
2022-12-11T11:50:58.426Z,23.90
2022-12-11T11:53:31.445Z,16.98
2022-12-11T11:56:06.904Z,23.17
2022-12-11T12:01:17.227Z,21.65
2022-12-11T12:03:48.454Z,14.95
2022-12-11T12:06:27.039Z,24.05
2022-12-11T12:09:03.543Z,19.55
2022-12-11T12:11:39.030Z,17.08
2022-12-11T12:14:43.654Z,19.05
2022-12-11T12:17:15.246Z,19.90
2022-12-11T12:19:51.248Z,21.38
2022-12-11T12:22:51.032Z,23.52
2022-12-11T12:25:25.549Z,22.63
2022-12-11T12:28:01.190Z,21.03
2022-12-11T12:30:33.300Z,18.33
2022-12-11T12:33:15.814Z,21.90
2022-12-11T12:35:52.447Z,17.98
2022-12-11T12:38:24.569Z,19.55
2022-12-11T12:41:03.780Z,20.40
2022-12-11T12:43:44.985Z,17.48
2022-12-11T12:46:23.057Z,16.42
2022-12-11T12:48:53.362Z,21.08
2022-12-11T12:51:22.689Z,21.98
2022-12-11T12:53:55.577Z,21.85
2022-12-11T12:56:25.337Z,22.35
2022-12-11T12:58:53.245Z,25.25
2022-12-11T13:01:23.867Z,24.83
2022-12-11T13:03:55.775Z,22.05
2022-12-11T13:06:34.050Z,23.25
2022-12-11T13:09:14.481Z,28.00
2022-12-11T13:11:42.794Z,30.38
2022-12-11T13:14:29.195Z,32.70
2022-12-11T13:17:26.454Z,23.67
2022-12-11T13:20:14.913Z,24.05
2022-12-11T13:22:54.680Z,25.08
2022-12-11T13:25:27.079Z,26.30
2022-12-11T13:28:05.482Z,27.52
2022-12-11T13:30:34.500Z,25.15
2022-12-11T13:33:06.016Z,26.50
2022-12-11T13:35:35.223Z,26.77
2022-12-11T13:38:08.814Z,23.13
2022-12-11T13:40:41.073Z,21.75
2022-12-11T13:43:18.259Z,24.17
2022-12-11T13:45:49.992Z,20.55
2022-12-11T13:48:24.811Z,22.83
2022-12-11T13:50:54.489Z,18.25
2022-12-11T13:53:24.314Z,25.33
2022-12-11T13:55:59.053Z,27.58
2022-12-11T13:58:27.135Z,24.77
2022-12-11T14:01:14.084Z,22.25
2022-12-11T14:03:44.471Z,26.50
2022-12-11T14:06:18.582Z,23.90
2022-12-11T14:08:51.065Z,24.33
2022-12-11T14:11:24.840Z,21.52
2022-12-11T14:13:52.544Z,23.70
2022-12-11T14:16:22.039Z,22.23
2022-12-11T14:18:52.031Z,25.63
2022-12-11T14:21:21.164Z,27.83
2022-12-11T14:23:55.739Z,24.60
2022-12-11T14:26:25.842Z,22.00
2022-12-11T14:28:54.323Z,22.92
2022-12-11T14:31:29.679Z,27.60
2022-12-11T14:36:33.003Z,26.85
2022-12-11T14:39:07.210Z,22.55
2022-12-11T14:41:43.832Z,25.13
2022-12-11T14:44:15.880Z,26.17
2022-12-11T14:46:47.307Z,23.40
2022-12-11T14:49:22.144Z,20.77
2022-12-11T14:51:51.694Z,25.15
2022-12-11T14:54:26.385Z,26.10
2022-12-11T14:56:55.406Z,25.02
2022-12-11T14:59:30.102Z,24.98
2022-12-11T15:02:01.525Z,23.25
2022-12-11T15:04:32.050Z,31.25
2022-12-11T15:07:00.450Z,24.33
2022-12-11T15:09:37.094Z,21.50
2022-12-11T15:12:12.344Z,24.55
2022-12-11T15:14:47.979Z,23.58
2022-12-11T15:17:16.495Z,22.67
2022-12-11T15:19:51.298Z,28.83
2022-12-11T15:22:20.741Z,26.55
2022-12-11T15:24:52.625Z,25.35
2022-12-11T15:27:26.928Z,25.90
2022-12-11T15:29:54.708Z,26.30
2022-12-11T15:32:22.697Z,33.03
2022-12-11T15:34:52.965Z,26.38
2022-12-11T15:37:22.884Z,26.30
2022-12-11T15:39:52.575Z,26.40
2022-12-11T15:42:25.504Z,27.55
2022-12-11T15:44:53.517Z,31.52
2022-12-11T15:47:23.410Z,30.75
2022-12-11T15:49:51.025Z,26.33
2022-12-11T15:52:18.539Z,29.08
2022-12-11T15:54:46.025Z,31.60
2022-12-11T15:57:18.772Z,28.30
2022-12-11T15:59:48.694Z,31.88
2022-12-11T16:02:16.810Z,28.77
2022-12-11T16:04:44.686Z,29.42
2022-12-11T16:07:17.567Z,26.75
2022-12-11T16:09:45.536Z,29.20
2022-12-11T16:12:14.980Z,29.70
2022-12-11T16:14:42.921Z,30.55
2022-12-11T16:17:11.684Z,31.10
2022-12-11T16:19:40.369Z,28.48
2022-12-11T16:22:09.519Z,29.55
2022-12-11T16:24:37.299Z,30.40
2022-12-11T16:27:05.930Z,29.27
2022-12-11T16:29:36.814Z,28.08
2022-12-11T16:32:06.933Z,30.98
2022-12-11T16:34:34.933Z,26.60
2022-12-11T16:37:03.196Z,29.33
2022-12-11T16:39:30.665Z,50.53
2022-12-11T16:41:58.186Z,67.15
2022-12-11T16:44:27.484Z,49.97
2022-12-11T16:46:56.713Z,35.40
2022-12-11T16:49:24.288Z,25.65
2022-12-11T16:51:52.122Z,28.08
2022-12-11T16:54:19.992Z,30.42
2022-12-11T16:56:47.524Z,41.10
2022-12-11T16:59:15.237Z,32.38
2022-12-11T17:01:42.923Z,31.42
2022-12-11T17:04:11.900Z,27.63
2022-12-11T17:06:39.324Z,30.63
2022-12-11T17:09:07.138Z,32.78
2022-12-11T17:11:34.988Z,38.50
2022-12-11T17:14:02.497Z,34.25
2022-12-11T17:16:30.477Z,32.75
2022-12-11T17:18:58.930Z,33.83
2022-12-11T17:21:27.757Z,26.50
2022-12-11T17:23:55.209Z,34.30
2022-12-11T17:26:23.724Z,32.20
2022-12-11T17:28:51.979Z,34.05
2022-12-11T17:31:20.627Z,30.67
2022-12-11T17:33:49.525Z,30.23
2022-12-11T17:36:20.328Z,42.75
2022-12-11T17:38:49.982Z,27.77
2022-12-11T17:41:20.758Z,32.47
2022-12-11T17:43:49.145Z,42.42
2022-12-11T17:46:17.997Z,53.80
2022-12-11T17:48:45.742Z,62.85
2022-12-11T17:51:21.153Z,47.30
2022-12-11T17:56:18.450Z,41.15
2022-12-11T17:58:45.986Z,41.88
2022-12-11T18:01:14.029Z,32.63
2022-12-11T18:03:57.476Z,34.65
2022-12-11T18:06:47.761Z,33.47
2022-12-11T18:09:16.669Z,35.58
2022-12-11T18:11:44.257Z,36.03
2022-12-11T18:14:16.961Z,39.90
2022-12-11T18:16:45.359Z,37.28
2022-12-11T18:19:13.162Z,36.40
2022-12-11T18:21:43.740Z,37.10
2022-12-11T18:24:11.776Z,31.00
2022-12-11T18:26:42.623Z,36.17
2022-12-11T18:29:10.830Z,36.20
2022-12-11T18:31:42.343Z,42.88
2022-12-11T18:34:11.210Z,36.08
2022-12-11T18:36:40.807Z,36.28
2022-12-11T18:39:08.436Z,33.50
2022-12-11T18:41:36.011Z,42.42
2022-12-11T18:44:09.544Z,36.63
2022-12-11T18:46:37.649Z,42.92
2022-12-11T18:49:05.204Z,40.20
2022-12-11T18:51:32.857Z,40.83
2022-12-11T18:54:00.345Z,37.20
2022-12-11T18:56:28.039Z,36.17
2022-12-11T18:58:55.806Z,41.15
2022-12-11T19:01:27.017Z,46.28
2022-12-11T19:04:00.609Z,49.45
2022-12-11T19:06:33.023Z,54.75
2022-12-11T19:09:01.298Z,42.35
2022-12-11T19:11:30.937Z,47.00
2022-12-11T19:13:58.583Z,43.30
2022-12-11T19:16:30.472Z,41.15
2022-12-11T19:18:58.665Z,39.38
2022-12-11T19:21:27.141Z,46.20
2022-12-11T19:23:54.959Z,41.60
2022-12-11T19:26:24.293Z,39.30
2022-12-11T19:28:52.617Z,40.95
2022-12-11T19:31:22.543Z,44.08
2022-12-11T19:33:51.906Z,40.60
2022-12-11T19:36:21.598Z,36.67
2022-12-11T19:38:49.924Z,47.10
2022-12-11T19:41:20.701Z,51.22
2022-12-11T19:43:48.956Z,49.63
2022-12-11T19:46:17.228Z,43.72
2022-12-11T19:48:45.387Z,49.60
2022-12-11T19:51:16.196Z,41.90
2022-12-11T19:53:45.021Z,49.05
2022-12-11T19:56:13.792Z,44.72
2022-12-11T19:58:42.190Z,39.80
2022-12-11T20:01:10.751Z,33.65
2022-12-11T20:03:38.748Z,42.00
2022-12-11T20:06:08.633Z,40.63
2022-12-11T20:08:46.039Z,39.38
2022-12-11T20:11:18.594Z,42.88
2022-12-11T20:13:46.991Z,36.88
2022-12-11T20:16:15.689Z,40.67
2022-12-11T20:18:43.536Z,47.13
2022-12-11T20:21:14.436Z,42.10
2022-12-11T20:23:44.311Z,40.95
2022-12-11T20:26:14.202Z,43.53
2022-12-11T20:28:42.630Z,41.10
2022-12-11T20:31:19.539Z,45.72
2022-12-11T20:33:48.633Z,43.83
2022-12-11T20:36:17.785Z,40.47
2022-12-11T20:38:46.817Z,42.85
2022-12-11T20:41:16.052Z,49.40
2022-12-11T20:43:44.471Z,35.08
2022-12-11T20:46:14.627Z,43.78
2022-12-11T20:48:43.926Z,39.00
2022-12-11T20:51:13.565Z,52.28
2022-12-11T20:53:42.236Z,48.03
2022-12-11T20:56:13.321Z,47.88
2022-12-11T20:58:41.527Z,38.95
2022-12-11T21:01:14.938Z,41.53
2022-12-11T21:03:42.934Z,39.80
2022-12-11T21:06:10.629Z,49.13
2022-12-11T21:08:38.451Z,43.17
2022-12-11T21:11:07.308Z,48.13
2022-12-11T21:13:37.301Z,45.75
2022-12-11T21:16:06.714Z,44.97
2022-12-11T21:18:36.477Z,51.03
2022-12-11T21:21:05.317Z,53.78
2022-12-11T21:23:33.782Z,40.38
2022-12-11T21:26:01.694Z,44.75
2022-12-11T21:28:34.971Z,41.65
2022-12-11T21:31:06.162Z,43.72
2022-12-11T21:33:34.470Z,40.17
2022-12-11T21:36:03.404Z,45.55
2022-12-11T21:38:31.776Z,43.30
2022-12-11T21:40:59.949Z,53.90
2022-12-11T21:43:27.626Z,43.05
2022-12-11T21:46:02.655Z,44.75
2022-12-11T21:48:32.176Z,37.58
2022-12-11T21:51:07.359Z,40.45
2022-12-11T21:53:35.387Z,40.08
2022-12-11T21:56:07.196Z,40.88
2022-12-11T21:58:34.858Z,48.50
2022-12-11T22:01:02.504Z,48.05
2022-12-11T22:03:31.664Z,39.00
2022-12-11T22:05:59.431Z,50.78
2022-12-11T22:08:27.185Z,49.75
2022-12-11T22:10:55.669Z,50.30
2022-12-11T22:13:23.422Z,43.05
2022-12-11T22:15:52.157Z,46.13
2022-12-11T22:18:20.169Z,48.55
2022-12-11T22:20:49.223Z,49.65
2022-12-11T22:23:16.758Z,47.13
2022-12-11T22:25:44.467Z,53.28
2022-12-11T22:28:12.067Z,41.25
2022-12-11T22:30:40.588Z,51.45
2022-12-11T22:33:08.988Z,44.88
2022-12-11T22:35:38.383Z,40.10
2022-12-11T22:38:07.619Z,43.75
2022-12-11T22:40:35.461Z,43.67
2022-12-11T22:43:02.967Z,36.83
2022-12-11T22:45:30.438Z,52.28
2022-12-11T22:47:58.113Z,40.72
2022-12-11T22:50:25.764Z,42.92
2022-12-11T22:52:53.430Z,37.47
2022-12-11T22:55:22.245Z,45.13
2022-12-11T22:57:50.101Z,41.45
2022-12-11T23:00:18.189Z,51.40
2022-12-11T23:02:46.379Z,43.58
2022-12-11T23:05:14.450Z,48.15
2022-12-11T23:07:42.292Z,44.30
2022-12-11T23:10:11.200Z,43.75
2022-12-11T23:12:40.230Z,43.95
2022-12-11T23:15:09.121Z,43.22
2022-12-11T23:17:36.852Z,42.67
2022-12-11T23:20:05.737Z,52.75
2022-12-11T23:22:34.090Z,42.45
2022-12-11T23:25:02.116Z,40.70
2022-12-11T23:27:30.236Z,45.60
2022-12-11T23:29:59.088Z,45.13
2022-12-11T23:32:26.684Z,45.95
2022-12-11T23:34:54.157Z,51.00
2022-12-11T23:37:21.750Z,41.78
2022-12-11T23:39:49.407Z,44.38
2022-12-11T23:42:16.868Z,42.60
2022-12-11T23:44:44.339Z,42.13
2022-12-11T23:47:13.241Z,41.92
2022-12-11T23:49:40.698Z,43.38
2022-12-11T23:52:08.697Z,48.85
2022-12-11T23:54:36.294Z,43.13
2022-12-11T23:57:03.790Z,46.42
2022-12-11T23:59:31.219Z,40.97
